Yellow Mule RAWS (NWS)

Jump to table bottom
Date/Time Wind Direction Wind Speed knots Wind Gust knots RH % Accumulated Precip Inches Air Temp Fahrenheit
2022-05-26 04:04 SSW 7 16 52 3.75 39
2022-05-26 03:04 SW 10 15 50 3.75 40
2022-05-26 02:04 SW 7 10 48 3.75 40
2022-05-26 01:04 SSW 5 13 48 3.75 42
2022-05-26 00:04 SSW 7 16 48 3.75 43
2022-05-25 23:04 SSW 9 15 51 3.75 44
2022-05-25 22:04 SSW 9 17 51 3.75 45
2022-05-25 21:04 SSW 11 17 47 3.75 46
2022-05-25 20:04 SSW 10 23 43 3.75 48
2022-05-25 19:04 SSW 9 21 40 3.75 50
2022-05-25 18:04 SSW 7 21 43 3.75 50
2022-05-25 17:04 S 11 23 42 3.75 49
2022-05-25 16:04 SW 17 26 38 3.75 49
2022-05-25 15:04 SW 16 23 38 3.75 47
2022-05-25 14:04 SSW 15 26 46 3.75 48
2022-05-25 13:04 SW 11 23 49 3.75 47
2022-05-25 12:04 SSW 18 30 56 3.75 43
2022-05-25 11:04 SSW 10 21 54 3.75 43
2022-05-25 10:04 SSW 11 21 55 3.75 43
2022-05-25 09:04 SSW 17 23 62 3.75 36
2022-05-25 08:04 SSW 15 20 55 3.75 37
2022-05-25 07:04 SSW 8 20 56 3.75 35
2022-05-25 06:04 S 8 13 56 3.75 33
2022-05-25 05:04 S 8 14 55 3.75 33
2022-05-25 04:04 S 6 10 56 3.75 33
2022-05-25 03:04 SSW 4 10 53 3.75 32
2022-05-25 02:04 SSW 9 12 52 3.75 32
2022-05-25 01:04 SSW 8 12 53 3.75 32
2022-05-25 00:04 SSW 5 13 58 3.75 32
2022-05-24 23:04 S 5 9 59 3.75 33
2022-05-24 22:04 SSW 3 6 59 3.75 33
2022-05-24 21:04 WSW 6 10 60 3.75 33
2022-05-24 20:04 SW 6 12 50 3.75 38
2022-05-24 19:04 S 3 10 51 3.75 42
2022-05-24 18:04 SE 4 12 56 3.75 39
2022-05-24 17:04 WSW 10 14 48 3.75 41
2022-05-24 16:04 NE 3 10 60 3.75 39
2022-05-24 15:04 S 5 10 65 3.75 37
2022-05-24 14:04 N 6 10 66 3.75 37
2022-05-24 13:04 SW 9 14 51 3.75 40
2022-05-24 12:04 SE 4 10 53 3.75 37
2022-05-24 11:04 W 3 10 30 3.75 46
2022-05-24 10:04 SSW 8 10 47 3.75 34
2022-05-24 09:04 WSW 5 9 51 3.75 37
2022-05-24 08:04 SSW 3 6 65 3.75 33
2022-05-24 07:04 SW 3 5 72 3.74 29
2022-05-24 06:04 SSW 3 6 75 3.74 27
2022-05-24 05:04 SSW 3 4 81 3.74 27
2022-05-24 04:04 SSW 3 5 85 3.74 26
2022-05-24 03:04 WNW 2 7 81 3.74 27